• Join FlightAware (Why Join?)
  • Login
  • US Flag 
06:48PM EDT


 

Airport Tracker/Info


-or-


 

Live Flight TrackerFlight Track Log ✈ AAL554 ✈ 21-Apr-2013 ✈ KSFO - KDFW

Flight Track Log - Related Links

Times and Time Zones

All times are in EDT time to prevent confusion due to time zone crossing. See the AAL554 flight status page for this flight to view local times or setup timezone preferences in your user account.

Time Position Orientation Groundspeed Altitude Reporting Facility
EDT Latitude Longitude Course Direction KTS MPH feet Rate Location/Type
03:47AM 37.6310 -122.2260 80° East 256 295 5,200  Level FlightAware
03:48AM 37.9432 -122.3143 80° East  Level FlightAware Approximate
03:48AM 37.6220 -122.1830 105° East 273 314 6,600  Level FlightAware
03:48AM 37.6320 -122.1210 78° East 285 328 8,500 2,760 Climbing FlightAware
03:49AM 37.6480 -122.0810 63° Northeast 301 346 9,600 2,040 Climbing FlightAware
03:50AM 37.6780 -122.0060 63° Northeast 350 403 10,900 1,740 Climbing FlightAware
03:51AM 37.7210 -121.8980 63° Northeast 397 457 12,500 2,340 Climbing FlightAware
03:51AM 37.7590 -121.8020 63° Northeast 402 463 14,800 2,580 Climbing FlightAware
03:52AM 37.7890 -121.7150 66° East 422 486 16,200 2,160 Climbing FlightAware
03:53AM 37.8040 -121.6080 80° East 438 504 17,900 2,220 Climbing FlightAware
03:53AM 37.8120 -121.5010 85° East 450 518 19,400 2,160 Climbing FlightAware
03:54AM 37.8220 -121.3950 83° East 458 527 20,800 2,040 Climbing FlightAware
03:55AM 37.8340 -121.2720 83° East 468 539 22,300 1,920 Climbing FlightAware
03:55AM 37.8440 -121.1610 83° East 474 545 23,600 1,800 Climbing FlightAware
03:56AM 37.8530 -121.0520 84° East 479 551 24,700 1,560 Climbing FlightAware
03:57AM 37.8630 -120.9380 84° East 486 559 25,700 1,500 Climbing FlightAware
03:57AM 37.8720 -120.8290 84° East 492 566 26,700 1,620 Climbing FlightAware
03:58AM 37.8850 -120.6870 83° East 491 565 28,200 1,500 Climbing FlightAware
03:59AM 37.8950 -120.5700 84° East 495 570 29,000 1,080 Climbing FlightAware
04:00AM 37.9050 -120.4430 84° East 497 572 29,800 1,380 Climbing FlightAware
04:00AM 37.9150 -120.3220 84° East 494 568 31,000 1,560 Climbing FlightAware
04:01AM 37.9280 -120.1670 84° East 493 567 32,300 1,380 Climbing FlightAware
04:02AM 37.9380 -120.0400 84° East 492 566 33,300 1,260 Climbing FlightAware
04:03AM 37.9480 -119.9220 84° East 491 565 34,100 1,080 Climbing FlightAware
04:03AM 37.9560 -119.8110 85° East 493 567 34,800 600 Climbing FlightAware
04:04AM 37.9660 -119.6880 84° East 496 571 35,000 120 Climbing FlightAware
04:05AM 37.9750 -119.5650 85° East 499 574 35,000  Level FlightAware
04:05AM 37.9830 -119.4690 84° East 499 574 35,000  Level FlightAware
04:06AM 37.9940 -119.3150 85° East 503 579 35,000  Level FlightAware
04:07AM 38.0020 -119.2000 85° East 505 581 35,000  Level FlightAware
04:08AM 38.0110 -119.0670 85° East 507 583 35,000  Level FlightAware
04:08AM 38.0190 -118.9650 84° East 507 583 35,000  Level FlightAware
04:09AM 38.0280 -118.8490 84° East 507 583 35,000  Level FlightAware
04:10AM 38.0370 -118.7480 84° East 507 583 35,000  Level FlightAware
04:10AM 38.0450 -118.6470 84° East 507 583 35,000  Level FlightAware
04:11AM 38.0530 -118.5470 84° East 507 583 35,000  Level FlightAware
04:12AM 38.0640 -118.4210 84° East 507 583 35,000  Level FlightAware
04:12AM 38.0720 -118.3200 84° East 507 583 35,000  Level FlightAware
04:13AM 38.0800 -118.2190 84° East 507 583 35,000  Level FlightAware
04:14AM 38.0890 -118.1190 83° East 507 583 35,000  Level FlightAware
04:14AM 38.0970 -118.0180 84° East 507 583 35,000  Level FlightAware
04:15AM 38.1070 -117.8920 84° East 507 583 35,000  Level FlightAware
04:16AM 38.1160 -117.7910 84° East 507 583 35,000  Level FlightAware
04:17AM 38.1240 -117.6900 84° East 507 583 35,000  Level FlightAware
04:17AM 38.1320 -117.5890 84° East 507 583 35,000  Level FlightAware
04:18AM 38.1410 -117.4890 83° East 507 583 35,000  Level FlightAware
04:19AM 38.1344 -117.0953 83° East 503 579 35,000  Level Salt Lake Center
04:20AM 38.1436 -116.9192 86° East 503 579 35,000  Level Salt Lake Center
04:21AM 38.1531 -116.7436 86° East 498 573 35,000  Level Oakland Center
04:22AM 38.1619 -116.5669 86° East 501 577 35,000  Level Oakland Center
04:23AM 38.1703 -116.3892 87° East 504 580 35,000  Level Oakland Center
04:24AM 38.1789 -116.2122 86° East 502 578 35,000  Level Oakland Center
04:25AM 38.1869 -116.0339 87° East 506 582 35,000  Level Salt Lake Center
04:26AM 38.1956 -115.8569 86° East 504 580 35,000  Level Salt Lake Center
04:27AM 38.2022 -115.6772 87° East 509 586 35,000  Level Salt Lake Center
04:28AM 38.2106 -115.4972 87° East 511 588 35,000  Level Salt Lake Center
04:29AM 38.2183 -115.3217 87° East 510 587 35,000  Level Salt Lake Center
04:30AM 38.2242 -115.1414 88° East 511 588 35,000  Level Salt Lake Center
04:31AM 38.2311 -114.9606 87° East 512 589 35,000  Level Salt Lake Center
04:32AM 38.2369 -114.7806 88° East 511 588 35,000  Level Salt Lake Center
04:33AM 38.2433 -114.5989 87° East 515 593 35,000  Level Salt Lake Center
04:34AM 38.2475 -114.4194 88° East 510 587 35,000  Level Salt Lake Center
04:35AM 38.2153 -114.2425 103° East 512 589 35,000  Level Salt Lake Center
04:36AM 38.1750 -114.0672 106° East 516 594 35,000  Level Salt Lake Center
04:37AM 38.1369 -113.8911 105° East 517 595 35,000  Level Salt Lake Center
04:38AM 38.0958 -113.7169 107° East 517 595 35,000  Level Salt Lake Center
04:39AM 38.0572 -113.5408 106° East 518 596 35,000  Level Salt Lake Center
04:40AM 38.0175 -113.3650 106° East 518 596 35,000  Level Salt Lake Center
04:41AM 37.9767 -113.1869 106° East 523 602 35,000  Level Salt Lake Center
04:42AM 37.9347 -113.0081 107° East 525 604 35,000  Level Salt Lake Center
04:43AM 37.8944 -112.8289 106° East 524 603 35,000  Level Salt Lake Center
04:44AM 37.8525 -112.6492 106° East 525 604 35,000  Level Salt Lake Center
04:45AM 37.8111 -112.4719 106° East 523 602 35,000  Level Salt Lake Center
04:46AM 37.7689 -112.2958 107° East 521 600 35,000  Level Salt Lake Center
04:47AM 37.7264 -112.1203 107° East 521 600 35,000  Level Salt Lake Center
04:48AM 37.6844 -111.9450 107° East 523 602 35,000  Level Salt Lake Center
04:49AM 37.6403 -111.7689 108° East 526 605 35,000  Level Salt Lake Center
04:49AM 37.6169 -111.6628 105° East 523 602 35,000  Level Denver Center
04:50AM 37.5742 -111.4869 107° East 525 604 35,000  Level Denver Center
04:51AM 37.5292 -111.3108 108° East 527 606 35,000  Level Denver Center
04:52AM 37.4853 -111.1347 107° East 528 608 35,000  Level Denver Center
04:53AM 37.4406 -110.9575 108° East 531 611 35,000  Level Denver Center
04:54AM 37.3942 -110.7803 108° East 534 615 35,000  Level Denver Center
04:56AM 37.3497 -110.6064 108° East 528 608 35,000  Level Denver Center
04:57AM 37.3047 -110.4300 108° East 530 610 35,000  Level Denver Center
04:58AM 37.2583 -110.2542 108° East 532 612 35,000  Level Denver Center
04:59AM 37.2144 -110.0875 108° East 527 606 35,000  Level Denver Center
05:00AM 37.1703 -109.9167 108° East 534 615 35,000  Level Denver Center
05:01AM 37.1186 -109.7217 108° East 528 608 35,000  Level Denver Center
05:02AM 37.0742 -109.5531 108° East 530 610 35,000  Level Denver Center
05:03AM 37.0286 -109.3839 109° East 533 613 35,000  Level Denver Center
05:04AM 36.9836 -109.2153 108° East 532 612 35,000  Level Denver Center
05:05AM 36.9306 -109.0197 109° East 531 611 35,000  Level Denver Center
05:06AM 36.8847 -108.8506 109° East 534 615 35,000  Level Denver Center
05:07AM 36.8386 -108.6819 109° East 533 613 35,000  Level Denver Center
05:08AM 36.7917 -108.5144 109° East 533 613 35,000  Level Denver Center
05:09AM 36.7453 -108.3467 109° East 532 612 35,000  Level Denver Center
05:10AM 36.6908 -108.1525 109° East 530 610 35,000  Level Denver Center
05:11AM 36.6433 -107.9861 110° East 530 610 35,000  Level Denver Center
05:12AM 36.5958 -107.8189 109° East 533 613 35,000  Level Denver Center
05:13AM 36.5492 -107.6547 109° East 528 608 35,000  Level Denver Center
05:18AM 36.2500 -106.6270 109° East 535 616 35,000  Level FlightAware
05:19AM 36.2030 -106.4690 110° East 538 619 35,000  Level FlightAware
05:20AM 36.1630 -106.3340 110° East 537 618 35,000  Level FlightAware
05:21AM 36.1260 -106.2130 111° Southeast 538 619 35,000  Level FlightAware
05:22AM 36.0910 -106.0950 110° East 538 619 35,000  Level FlightAware
05:22AM 36.0620 -105.9960 110° East 538 619 35,000  Level FlightAware
05:23AM 36.0330 -105.8980 110° East 538 619 35,000  Level FlightAware
05:24AM 35.9970 -105.7750 110° East 538 619 35,000  Level FlightAware
05:24AM 35.9390 -105.5990 112° Southeast 531 611 35,000  Level FlightAware
05:25AM 35.9110 -105.5020 110° East 531 611 35,000  Level FlightAware
05:26AM 35.8820 -105.4050 110° East 531 611 35,000  Level FlightAware
05:26AM 35.8540 -105.3080 110° East 531 611 35,000  Level FlightAware
05:27AM 35.8180 -105.1870 110° East 531 611 35,000  Level FlightAware
05:28AM 35.7890 -105.0900 110° East 531 611 35,000  Level FlightAware
05:29AM 35.7610 -104.9940 110° East 531 611 35,000  Level FlightAware
05:29AM 35.7320 -104.8970 110° East 531 611 35,000  Level FlightAware
05:30AM 35.7040 -104.8000 110° East 531 611 35,000  Level FlightAware
05:31AM 35.6680 -104.6800 110° East 531 611 35,000  Level FlightAware
05:31AM 35.6390 -104.5830 110° East 531 611 35,000  Level FlightAware
05:32AM 35.6110 -104.4860 110° East 531 611 35,000  Level FlightAware
05:33AM 35.5820 -104.3900 110° East 531 611 35,000  Level FlightAware
05:33AM 35.5540 -104.2930 110° East 531 611 35,000  Level FlightAware
05:34AM 35.4186 -103.9567 110° East 529 609 35,000  Level Albuquerque Center
05:35AM 35.3625 -103.7853 112° Southeast 531 611 35,000  Level Albuquerque Center
05:36AM 35.3067 -103.6136 112° Southeast 535 616 35,000  Level Albuquerque Center
05:37AM 35.2494 -103.4433 112° Southeast 535 616 35,000  Level Albuquerque Center
05:38AM 35.1928 -103.2711 112° Southeast 539 620 35,000  Level Albuquerque Center
05:39AM 35.1350 -103.0994 112° Southeast 541 623 35,000  Level Albuquerque Center
05:40AM 35.0856 -102.9561 113° Southeast 543 625 35,000  Level Albuquerque Center
05:41AM 35.0303 -102.7914 112° Southeast 543 625 35,000  Level Albuquerque Center
05:42AM 34.9600 -102.5883 113° Southeast 545 627 35,000  Level Albuquerque Center
05:43AM 34.9031 -102.4194 112° Southeast 543 625 35,000  Level Albuquerque Center
05:44AM 34.8464 -102.2508 112° Southeast 542 624 35,000  Level Albuquerque Center
05:45AM 34.7869 -102.0822 113° Southeast 545 627 35,000  Level Albuquerque Center
05:46AM 34.7294 -101.9167 113° Southeast 540 621 35,000  Level Albuquerque Center
05:47AM 34.6731 -101.7528 113° Southeast 534 615 35,000  Level Albuquerque Center
05:48AM 34.6150 -101.5867 113° Southeast 537 618 35,000  Level Albuquerque Center
05:49AM 34.5569 -101.4200 113° Southeast 539 620 35,000  Level Albuquerque Center
05:50AM 34.4983 -101.2544 113° Southeast 538 619 35,000  Level Albuquerque Center
05:51AM 34.4386 -101.0889 114° Southeast 539 620 35,000  Level Albuquerque Center
05:52AM 34.3825 -100.9206 112° Southeast 541 623 35,000  Level Albuquerque Center
05:53AM 34.3297 -100.7506 111° Southeast 542 624 35,000  Level Albuquerque Center
05:54AM 34.2742 -100.5831 112° Southeast 540 621 35,000  Level Albuquerque Center
05:55AM 34.2183 -100.4125 112° Southeast 545 627 35,000  Level Albuquerque Center
05:56AM 34.1619 -100.2431 112° Southeast 546 628 35,000  Level Albuquerque Center
05:57AM 34.1083 -100.0819 112° Southeast 548 631 35,000  Level Albuquerque Center
05:58AM 34.0497 -99.9092 112° Southeast 553 636 35,000 -180 Level Albuquerque Center
05:59AM 33.9933 -99.7308 111° Southeast 543 625 34,700 -720 Descending Fort Worth Center
06:00AM 33.9336 -99.5639 113° Southeast 538 619 33,600 -1,020 Descending Fort Worth Center
06:01AM 33.8781 -99.3975 112° Southeast 538 619 32,700 -960 Descending Fort Worth Center
06:02AM 33.8200 -99.2311 113° Southeast 533 613 31,700 -1,560 Descending Fort Worth Center
06:08AM 33.5130 -98.3080 113° Southeast 485 558 22,500 -1,620 Descending FlightAware
06:09AM 33.4990 -98.1780 97° East 476 548 21,500 -600 Descending FlightAware
06:10AM 33.4870 -98.0670 97° East 476 548 21,500  Level FlightAware
06:10AM 33.4780 -97.9780 97° East 476 548 21,500  Level FlightAware
06:11AM 33.4690 -97.8880 97° East 476 548 21,500 -5,760 Level FlightAware
06:12AM 33.4290 -97.7550 110° East 403 464 13,400 -6,180 Descending FlightAware
06:13AM 33.3760 -97.6560 123° Southeast 385 443 11,200 -1,680 Descending FlightAware
06:13AM 33.3340 -97.5780 123° Southeast 346 398 10,600 -720 Descending FlightAware
06:14AM 33.3020 -97.5170 122° Southeast 312 359 10,200 -600 Descending FlightAware
06:14AM 33.2840 -97.4820 122° Southeast 294 338 10,000 -900 Descending FlightAware
06:15AM 33.2630 -97.4450 124° Southeast 287 330 9,400 -1,080 Descending FlightAware
06:20AM 33.0760 -97.0960 123° Southeast 198 228 4,300 -1,080 Descending FlightAware
06:20AM 33.0660 -97.0830 133° Southeast 189 217 4,100 -720 Descending FlightAware
06:20AM 33.0600 -97.0780 145° Southeast 189 217 4,000 -1,500 Descending FlightAware
06:21AM 33.0370 -97.0600 147° Southeast 161 185 3,100 -1,320 Descending FlightAware
06:21AM 33.0200 -97.0460 145° Southeast 137 158 2,700 -780 Descending FlightAware
06:22AM 33.0080 -97.0370 148° Southeast 123 142 2,400 -660 Descending FlightAware
06:22AM 32.9910 -97.0290 158° South 122 140 2,100 -840 Descending FlightAware
06:23AM 32.9750 -97.0300 183° South 122 140 1,600 -900 Descending FlightAware
06:23AM 32.9700 -97.0300 180° South 121 139 1,500 -420 Descending FlightAware
06:23AM 32.9510 -97.0300 180° South 124 143 1,300 -360 Descending FlightAware